sensor_id;sensor_type;location;lat;lon;timestamp;P1;durP1;ratioP1;P2;durP2;ratioP2
75626;SDS011;67372;49.404;11.034;2023-11-21T00:01:58;2.22;;;0.95;;
75626;SDS011;67372;49.404;11.034;2023-11-21T00:04:24;1.92;;;0.75;;
75626;SDS011;67372;49.404;11.034;2023-11-21T00:06:51;1.98;;;0.70;;
75626;SDS011;67372;49.404;11.034;2023-11-21T00:09:17;1.13;;;0.52;;
75626;SDS011;67372;49.404;11.034;2023-11-21T00:11:44;1.50;;;0.57;;
75626;SDS011;67372;49.404;11.034;2023-11-21T00:14:11;1.50;;;0.93;;
75626;SDS011;67372;49.404;11.034;2023-11-21T00:16:37;1.95;;;0.90;;
75626;SDS011;67372;49.404;11.034;2023-11-21T00:19:04;1.13;;;0.57;;
75626;SDS011;67372;49.404;11.034;2023-11-21T00:21:30;1.73;;;0.80;;
75626;SDS011;67372;49.404;11.034;2023-11-21T00:23:56;2.05;;;0.75;;
75626;SDS011;67372;49.404;11.034;2023-11-21T00:26:23;2.17;;;0.60;;
75626;SDS011;67372;49.404;11.034;2023-11-21T00:28:49;2.83;;;0.60;;
75626;SDS011;67372;49.404;11.034;2023-11-21T00:31:16;2.80;;;0.68;;
75626;SDS011;67372;49.404;11.034;2023-11-21T00:33:43;0.98;;;0.80;;
75626;SDS011;67372;49.404;11.034;2023-11-21T00:36:09;2.85;;;1.23;;
75626;SDS011;67372;49.404;11.034;2023-11-21T00:38:36;3.13;;;1.00;;
75626;SDS011;67372;49.404;11.034;2023-11-21T00:41:02;2.78;;;0.90;;
75626;SDS011;67372;49.404;11.034;2023-11-21T00:43:29;4.35;;;1.10;;
75626;SDS011;67372;49.404;11.034;2023-11-21T00:45:55;1.73;;;0.88;;
75626;SDS011;67372;49.404;11.034;2023-11-21T00:48:22;4.18;;;1.40;;
75626;SDS011;67372;49.404;11.034;2023-11-21T00:50:48;4.13;;;1.40;;
75626;SDS011;67372;49.404;11.034;2023-11-21T00:53:14;2.03;;;1.20;;
75626;SDS011;67372;49.404;11.034;2023-11-21T00:55:41;2.67;;;1.20;;
75626;SDS011;67372;49.404;11.034;2023-11-21T00:58:07;2.50;;;1.20;;
75626;SDS011;67372;49.404;11.034;2023-11-21T01:00:34;2.75;;;1.25;;
75626;SDS011;67372;49.404;11.034;2023-11-21T01:03:00;1.73;;;1.10;;
75626;SDS011;67372;49.404;11.034;2023-11-21T01:05:26;2.30;;;1.08;;
75626;SDS011;67372;49.404;11.034;2023-11-21T01:07:53;2.90;;;1.20;;
75626;SDS011;67372;49.404;11.034;2023-11-21T01:10:19;2.90;;;1.10;;
75626;SDS011;67372;49.404;11.034;2023-11-21T01:12:46;2.00;;;1.25;;
75626;SDS011;67372;49.404;11.034;2023-11-21T01:15:12;5.10;;;1.17;;
75626;SDS011;67372;49.404;11.034;2023-11-21T01:17:38;3.17;;;1.20;;
75626;SDS011;67372;49.404;11.034;2023-11-21T01:20:05;2.58;;;1.10;;
75626;SDS011;67372;49.404;11.034;2023-11-21T01:22:32;2.33;;;1.10;;
75626;SDS011;67372;49.404;11.034;2023-11-21T01:24:58;2.95;;;1.00;;
75626;SDS011;67372;49.404;11.034;2023-11-21T01:27:25;1.83;;;1.05;;
75626;SDS011;67372;49.404;11.034;2023-11-21T01:29:51;1.95;;;1.10;;
75626;SDS011;67372;49.404;11.034;2023-11-21T01:32:18;1.85;;;1.20;;
75626;SDS011;67372;49.404;11.034;2023-11-21T01:34:44;2.42;;;0.85;;
75626;SDS011;67372;49.404;11.034;2023-11-21T01:37:11;1.10;;;0.70;;
75626;SDS011;67372;49.404;11.034;2023-11-21T01:39:37;1.08;;;0.73;;
75626;SDS011;67372;49.404;11.034;2023-11-21T01:42:04;2.05;;;0.80;;
75626;SDS011;67372;49.404;11.034;2023-11-21T01:44:30;1.42;;;1.00;;
75626;SDS011;67372;49.404;11.034;2023-11-21T01:46:57;1.83;;;0.80;;
75626;SDS011;67372;49.404;11.034;2023-11-21T01:49:23;1.60;;;0.70;;
75626;SDS011;67372;49.404;11.034;2023-11-21T01:51:50;2.83;;;0.90;;
75626;SDS011;67372;49.404;11.034;2023-11-21T01:54:17;1.77;;;1.08;;
75626;SDS011;67372;49.404;11.034;2023-11-21T01:56:45;1.35;;;0.90;;
75626;SDS011;67372;49.404;11.034;2023-11-21T01:59:17;1.73;;;1.00;;
75626;SDS011;67372;49.404;11.034;2023-11-21T02:01:45;1.45;;;0.93;;
75626;SDS011;67372;49.404;11.034;2023-11-21T02:04:12;0.90;;;0.73;;
75626;SDS011;67372;49.404;11.034;2023-11-21T02:06:39;2.03;;;0.77;;
75626;SDS011;67372;49.404;11.034;2023-11-21T02:09:06;1.27;;;0.60;;
75626;SDS011;67372;49.404;11.034;2023-11-21T02:11:32;1.15;;;0.77;;
75626;SDS011;67372;49.404;11.034;2023-11-21T02:13:58;2.47;;;0.70;;
75626;SDS011;67372;49.404;11.034;2023-11-21T02:16:25;1.35;;;0.85;;
75626;SDS011;67372;49.404;11.034;2023-11-21T02:18:52;2.75;;;0.77;;
75626;SDS011;67372;49.404;11.034;2023-11-21T02:21:19;2.60;;;1.10;;
75626;SDS011;67372;49.404;11.034;2023-11-21T02:23:45;1.77;;;0.73;;
75626;SDS011;67372;49.404;11.034;2023-11-21T02:26:12;1.95;;;0.85;;
75626;SDS011;67372;49.404;11.034;2023-11-21T02:28:39;3.00;;;1.25;;
75626;SDS011;67372;49.404;11.034;2023-11-21T02:31:06;2.50;;;0.88;;
75626;SDS011;67372;49.404;11.034;2023-11-21T02:33:32;2.90;;;1.05;;
75626;SDS011;67372;49.404;11.034;2023-11-21T02:35:59;1.17;;;0.80;;
75626;SDS011;67372;49.404;11.034;2023-11-21T02:38:26;1.92;;;0.93;;
75626;SDS011;67372;49.404;11.034;2023-11-21T02:40:53;1.80;;;0.80;;
75626;SDS011;67372;49.404;11.034;2023-11-21T02:43:19;2.88;;;1.20;;
75626;SDS011;67372;49.404;11.034;2023-11-21T02:45:46;1.73;;;0.88;;
75626;SDS011;67372;49.404;11.034;2023-11-21T02:48:12;2.63;;;0.93;;
75626;SDS011;67372;49.404;11.034;2023-11-21T02:50:39;2.58;;;0.85;;
75626;SDS011;67372;49.404;11.034;2023-11-21T02:53:05;2.55;;;1.30;;
75626;SDS011;67372;49.404;11.034;2023-11-21T02:55:31;2.08;;;1.10;;
75626;SDS011;67372;49.404;11.034;2023-11-21T02:57:58;2.40;;;1.25;;
75626;SDS011;67372;49.404;11.034;2023-11-21T03:00:24;1.48;;;0.82;;
75626;SDS011;67372;49.404;11.034;2023-11-21T03:02:51;1.30;;;0.90;;
75626;SDS011;67372;49.404;11.034;2023-11-21T03:05:17;2.55;;;0.90;;
75626;SDS011;67372;49.404;11.034;2023-11-21T03:07:44;3.97;;;1.02;;
75626;SDS011;67372;49.404;11.034;2023-11-21T03:10:10;2.13;;;0.98;;
75626;SDS011;67372;49.404;11.034;2023-11-21T03:12:37;1.98;;;1.17;;
75626;SDS011;67372;49.404;11.034;2023-11-21T03:15:05;1.40;;;0.80;;
75626;SDS011;67372;49.404;11.034;2023-11-21T03:17:32;3.53;;;0.98;;
75626;SDS011;67372;49.404;11.034;2023-11-21T03:20:00;3.10;;;1.20;;
75626;SDS011;67372;49.404;11.034;2023-11-21T03:22:27;2.35;;;1.10;;
75626;SDS011;67372;49.404;11.034;2023-11-21T03:24:54;2.53;;;1.10;;
75626;SDS011;67372;49.404;11.034;2023-11-21T03:27:20;1.95;;;0.82;;
75626;SDS011;67372;49.404;11.034;2023-11-21T03:29:48;2.13;;;1.08;;
75626;SDS011;67372;49.404;11.034;2023-11-21T03:32:14;1.92;;;1.13;;
75626;SDS011;67372;49.404;11.034;2023-11-21T03:34:57;1.38;;;1.02;;
75626;SDS011;67372;49.404;11.034;2023-11-21T03:37:25;2.88;;;1.25;;
75626;SDS011;67372;49.404;11.034;2023-11-21T03:39:52;2.63;;;1.13;;
75626;SDS011;67372;49.404;11.034;2023-11-21T03:42:18;2.92;;;1.30;;
75626;SDS011;67372;49.404;11.034;2023-11-21T03:44:45;1.75;;;0.90;;
75626;SDS011;67372;49.404;11.034;2023-11-21T03:47:11;1.48;;;0.95;;
75626;SDS011;67372;49.404;11.034;2023-11-21T03:49:37;3.15;;;1.00;;
75626;SDS011;67372;49.404;11.034;2023-11-21T03:52:04;2.22;;;1.00;;
75626;SDS011;67372;49.404;11.034;2023-11-21T03:54:31;2.60;;;0.90;;
75626;SDS011;67372;49.404;11.034;2023-11-21T03:56:58;2.92;;;1.00;;
75626;SDS011;67372;49.404;11.034;2023-11-21T03:59:24;1.98;;;0.80;;
75626;SDS011;67372;49.404;11.034;2023-11-21T04:01:51;2.20;;;0.90;;
75626;SDS011;67372;49.404;11.034;2023-11-21T04:04:17;3.10;;;1.10;;
75626;SDS011;67372;49.404;11.034;2023-11-21T04:06:44;1.48;;;0.80;;
75626;SDS011;67372;49.404;11.034;2023-11-21T04:09:10;1.75;;;0.95;;
75626;SDS011;67372;49.404;11.034;2023-11-21T04:11:36;3.10;;;1.05;;
75626;SDS011;67372;49.404;11.034;2023-11-21T04:14:03;2.17;;;1.35;;
75626;SDS011;67372;49.404;11.034;2023-11-21T04:16:29;4.03;;;1.08;;
75626;SDS011;67372;49.404;11.034;2023-11-21T04:18:56;1.48;;;0.82;;
75626;SDS011;67372;49.404;11.034;2023-11-21T04:21:22;1.70;;;1.00;;
75626;SDS011;67372;49.404;11.034;2023-11-21T04:23:49;2.55;;;1.10;;
75626;SDS011;67372;49.404;11.034;2023-11-21T04:26:15;1.85;;;1.00;;
75626;SDS011;67372;49.404;11.034;2023-11-21T04:28:41;3.58;;;1.00;;
75626;SDS011;67372;49.404;11.034;2023-11-21T04:31:08;4.28;;;1.15;;
75626;SDS011;67372;49.404;11.034;2023-11-21T04:33:34;1.90;;;0.80;;
75626;SDS011;67372;49.404;11.034;2023-11-21T04:36:01;3.45;;;1.02;;
75626;SDS011;67372;49.404;11.034;2023-11-21T04:38:27;2.60;;;1.20;;
75626;SDS011;67372;49.404;11.034;2023-11-21T04:40:53;2.75;;;1.10;;
75626;SDS011;67372;49.404;11.034;2023-11-21T04:43:20;5.22;;;1.20;;
75626;SDS011;67372;49.404;11.034;2023-11-21T04:45:46;2.20;;;1.10;;
75626;SDS011;67372;49.404;11.034;2023-11-21T04:48:13;2.28;;;0.98;;
75626;SDS011;67372;49.404;11.034;2023-11-21T04:50:39;2.58;;;1.27;;
75626;SDS011;67372;49.404;11.034;2023-11-21T04:53:05;3.15;;;1.13;;
75626;SDS011;67372;49.404;11.034;2023-11-21T04:55:32;2.40;;;1.63;;
75626;SDS011;67372;49.404;11.034;2023-11-21T04:57:58;3.67;;;1.30;;
75626;SDS011;67372;49.404;11.034;2023-11-21T05:00:26;1.77;;;0.98;;
75626;SDS011;67372;49.404;11.034;2023-11-21T05:02:52;5.63;;;1.30;;
75626;SDS011;67372;49.404;11.034;2023-11-21T05:05:19;4.03;;;1.33;;
75626;SDS011;67372;49.404;11.034;2023-11-21T05:07:45;2.95;;;1.23;;
75626;SDS011;67372;49.404;11.034;2023-11-21T05:10:12;3.03;;;1.67;;
75626;SDS011;67372;49.404;11.034;2023-11-21T05:12:39;4.28;;;1.38;;
75626;SDS011;67372;49.404;11.034;2023-11-21T05:15:06;4.28;;;1.42;;
75626;SDS011;67372;49.404;11.034;2023-11-21T05:17:33;2.00;;;1.30;;
75626;SDS011;67372;49.404;11.034;2023-11-21T05:20:00;3.45;;;1.70;;
75626;SDS011;67372;49.404;11.034;2023-11-21T05:22:26;5.05;;;1.73;;
75626;SDS011;67372;49.404;11.034;2023-11-21T05:24:52;4.13;;;1.83;;
75626;SDS011;67372;49.404;11.034;2023-11-21T05:27:19;4.30;;;1.85;;
75626;SDS011;67372;49.404;11.034;2023-11-21T05:29:45;3.42;;;1.75;;
75626;SDS011;67372;49.404;11.034;2023-11-21T05:32:12;4.28;;;1.38;;
75626;SDS011;67372;49.404;11.034;2023-11-21T05:34:38;3.05;;;1.70;;
75626;SDS011;67372;49.404;11.034;2023-11-21T05:37:05;2.13;;;1.40;;
75626;SDS011;67372;49.404;11.034;2023-11-21T05:39:31;2.67;;;1.77;;
75626;SDS011;67372;49.404;11.034;2023-11-21T05:41:57;3.17;;;1.50;;
75626;SDS011;67372;49.404;11.034;2023-11-21T05:44:24;2.00;;;1.30;;
75626;SDS011;67372;49.404;11.034;2023-11-21T05:46:50;5.38;;;1.60;;
75626;SDS011;67372;49.404;11.034;2023-11-21T05:49:17;2.40;;;1.40;;
75626;SDS011;67372;49.404;11.034;2023-11-21T05:51:43;2.95;;;1.88;;
75626;SDS011;67372;49.404;11.034;2023-11-21T05:54:10;3.63;;;1.95;;
75626;SDS011;67372;49.404;11.034;2023-11-21T05:56:36;4.43;;;1.98;;
75626;SDS011;67372;49.404;11.034;2023-11-21T05:59:02;4.70;;;1.65;;
75626;SDS011;67372;49.404;11.034;2023-11-21T06:01:29;4.03;;;1.73;;
75626;SDS011;67372;49.404;11.034;2023-11-21T06:03:55;3.10;;;1.50;;
75626;SDS011;67372;49.404;11.034;2023-11-21T06:06:22;3.92;;;1.73;;
75626;SDS011;67372;49.404;11.034;2023-11-21T06:08:48;3.00;;;1.58;;
75626;SDS011;67372;49.404;11.034;2023-11-21T06:11:15;5.35;;;1.90;;
75626;SDS011;67372;49.404;11.034;2023-11-21T06:13:41;3.58;;;1.75;;
75626;SDS011;67372;49.404;11.034;2023-11-21T06:16:08;3.38;;;1.60;;
75626;SDS011;67372;49.404;11.034;2023-11-21T06:18:35;3.63;;;1.90;;
75626;SDS011;67372;49.404;11.034;2023-11-21T06:21:01;3.53;;;2.00;;
75626;SDS011;67372;49.404;11.034;2023-11-21T06:23:28;4.28;;;1.90;;
75626;SDS011;67372;49.404;11.034;2023-11-21T06:25:54;4.53;;;2.05;;
75626;SDS011;67372;49.404;11.034;2023-11-21T06:28:20;3.10;;;1.80;;
75626;SDS011;67372;49.404;11.034;2023-11-21T06:30:47;3.00;;;1.75;;
75626;SDS011;67372;49.404;11.034;2023-11-21T06:33:13;4.35;;;1.60;;
75626;SDS011;67372;49.404;11.034;2023-11-21T06:35:40;3.05;;;1.55;;
75626;SDS011;67372;49.404;11.034;2023-11-21T06:38:06;3.45;;;1.88;;
75626;SDS011;67372;49.404;11.034;2023-11-21T06:40:32;3.67;;;1.70;;
75626;SDS011;67372;49.404;11.034;2023-11-21T06:42:59;4.32;;;2.00;;
75626;SDS011;67372;49.404;11.034;2023-11-21T06:45:26;3.75;;;1.95;;
75626;SDS011;67372;49.404;11.034;2023-11-21T06:47:52;6.57;;;2.15;;
75626;SDS011;67372;49.404;11.034;2023-11-21T06:50:19;3.30;;;1.80;;
75626;SDS011;67372;49.404;11.034;2023-11-21T06:52:45;3.00;;;1.77;;
75626;SDS011;67372;49.404;11.034;2023-11-21T06:55:12;5.47;;;2.33;;
75626;SDS011;67372;49.404;11.034;2023-11-21T06:57:38;5.53;;;2.58;;
75626;SDS011;67372;49.404;11.034;2023-11-21T07:02:37;5.65;;;2.42;;
75626;SDS011;67372;49.404;11.034;2023-11-21T07:05:04;5.72;;;2.35;;
75626;SDS011;67372;49.404;11.034;2023-11-21T07:07:30;5.78;;;2.58;;
75626;SDS011;67372;49.404;11.034;2023-11-21T07:09:57;7.28;;;2.95;;
75626;SDS011;67372;49.404;11.034;2023-11-21T07:12:24;5.50;;;3.35;;
75626;SDS011;67372;49.404;11.034;2023-11-21T07:14:50;5.30;;;3.00;;
75626;SDS011;67372;49.404;11.034;2023-11-21T07:17:16;6.13;;;3.08;;
75626;SDS011;67372;49.404;11.034;2023-11-21T07:19:43;5.70;;;3.00;;
75626;SDS011;67372;49.404;11.034;2023-11-21T07:22:11;5.93;;;2.88;;
75626;SDS011;67372;49.404;11.034;2023-11-21T07:24:37;7.45;;;3.40;;
75626;SDS011;67372;49.404;11.034;2023-11-21T07:27:03;7.68;;;3.97;;
75626;SDS011;67372;49.404;11.034;2023-11-21T07:29:30;4.95;;;2.85;;
75626;SDS011;67372;49.404;11.034;2023-11-21T07:31:56;5.55;;;2.40;;
75626;SDS011;67372;49.404;11.034;2023-11-21T07:34:23;6.10;;;2.63;;
75626;SDS011;67372;49.404;11.034;2023-11-21T07:36:50;4.38;;;2.70;;
75626;SDS011;67372;49.404;11.034;2023-11-21T07:39:16;4.25;;;2.33;;
75626;SDS011;67372;49.404;11.034;2023-11-21T07:41:43;3.33;;;2.30;;
75626;SDS011;67372;49.404;11.034;2023-11-21T07:44:09;4.20;;;2.33;;
75626;SDS011;67372;49.404;11.034;2023-11-21T07:46:36;5.70;;;2.22;;
75626;SDS011;67372;49.404;11.034;2023-11-21T07:49:02;4.85;;;2.50;;
75626;SDS011;67372;49.404;11.034;2023-11-21T07:51:29;4.28;;;2.60;;
75626;SDS011;67372;49.404;11.034;2023-11-21T07:53:55;4.95;;;2.88;;
75626;SDS011;67372;49.404;11.034;2023-11-21T07:56:21;4.50;;;2.38;;
75626;SDS011;67372;49.404;11.034;2023-11-21T07:58:48;4.20;;;2.38;;
75626;SDS011;67372;49.404;11.034;2023-11-21T08:01:18;5.85;;;2.30;;
75626;SDS011;67372;49.404;11.034;2023-11-21T08:03:44;3.72;;;2.40;;
75626;SDS011;67372;49.404;11.034;2023-11-21T08:06:11;5.75;;;2.58;;
75626;SDS011;67372;49.404;11.034;2023-11-21T08:08:37;6.13;;;3.17;;
75626;SDS011;67372;49.404;11.034;2023-11-21T08:11:03;5.68;;;2.83;;
75626;SDS011;67372;49.404;11.034;2023-11-21T08:13:31;5.40;;;2.95;;
75626;SDS011;67372;49.404;11.034;2023-11-21T08:15:57;4.90;;;3.05;;
75626;SDS011;67372;49.404;11.034;2023-11-21T08:18:24;6.03;;;3.00;;
75626;SDS011;67372;49.404;11.034;2023-11-21T08:20:50;5.82;;;2.50;;
75626;SDS011;67372;49.404;11.034;2023-11-21T08:23:17;4.38;;;2.80;;
75626;SDS011;67372;49.404;11.034;2023-11-21T08:25:44;4.15;;;2.63;;
75626;SDS011;67372;49.404;11.034;2023-11-21T08:28:11;4.88;;;2.80;;
75626;SDS011;67372;49.404;11.034;2023-11-21T08:30:37;6.15;;;2.55;;
75626;SDS011;67372;49.404;11.034;2023-11-21T08:33:04;5.63;;;2.90;;
75626;SDS011;67372;49.404;11.034;2023-11-21T08:35:30;5.93;;;2.80;;
75626;SDS011;67372;49.404;11.034;2023-11-21T08:37:57;5.18;;;2.08;;
75626;SDS011;67372;49.404;11.034;2023-11-21T08:40:23;5.15;;;2.85;;
75626;SDS011;67372;49.404;11.034;2023-11-21T08:42:50;6.57;;;3.25;;
75626;SDS011;67372;49.404;11.034;2023-11-21T08:45:17;4.93;;;2.90;;
75626;SDS011;67372;49.404;11.034;2023-11-21T08:47:44;5.28;;;3.15;;
75626;SDS011;67372;49.404;11.034;2023-11-21T08:50:11;6.63;;;2.70;;
75626;SDS011;67372;49.404;11.034;2023-11-21T08:52:38;6.00;;;2.92;;
75626;SDS011;67372;49.404;11.034;2023-11-21T08:55:05;6.05;;;3.30;;
75626;SDS011;67372;49.404;11.034;2023-11-21T08:57:32;5.22;;;2.88;;
75626;SDS011;67372;49.404;11.034;2023-11-21T08:59:58;4.22;;;2.67;;
75626;SDS011;67372;49.404;11.034;2023-11-21T09:02:27;6.30;;;3.17;;
75626;SDS011;67372;49.404;11.034;2023-11-21T09:04:54;13.13;;;6.22;;
75626;SDS011;67372;49.404;11.034;2023-11-21T09:07:21;6.90;;;4.00;;
75626;SDS011;67372;49.404;11.034;2023-11-21T09:09:48;6.40;;;3.40;;
75626;SDS011;67372;49.404;11.034;2023-11-21T09:12:15;8.43;;;3.58;;
75626;SDS011;67372;49.404;11.034;2023-11-21T09:14:42;5.43;;;3.05;;
75626;SDS011;67372;49.404;11.034;2023-11-21T09:17:11;6.00;;;2.70;;
75626;SDS011;67372;49.404;11.034;2023-11-21T09:19:38;4.32;;;2.85;;
75626;SDS011;67372;49.404;11.034;2023-11-21T09:22:04;3.60;;;2.25;;
75626;SDS011;67372;49.404;11.034;2023-11-21T09:24:31;5.40;;;2.90;;
75626;SDS011;67372;49.404;11.034;2023-11-21T09:26:58;6.30;;;2.83;;
75626;SDS011;67372;49.404;11.034;2023-11-21T09:29:25;4.85;;;2.90;;
75626;SDS011;67372;49.404;11.034;2023-11-21T09:31:54;6.22;;;2.70;;
75626;SDS011;67372;49.404;11.034;2023-11-21T09:34:21;5.13;;;3.08;;
75626;SDS011;67372;49.404;11.034;2023-11-21T09:36:48;4.90;;;3.10;;
75626;SDS011;67372;49.404;11.034;2023-11-21T09:39:14;5.53;;;3.15;;
75626;SDS011;67372;49.404;11.034;2023-11-21T09:41:51;5.22;;;2.70;;
75626;SDS011;67372;49.404;11.034;2023-11-21T09:44:18;5.57;;;3.00;;
75626;SDS011;67372;49.404;11.034;2023-11-21T09:46:48;6.82;;;3.55;;
75626;SDS011;67372;49.404;11.034;2023-11-21T09:49:17;6.68;;;2.92;;
75626;SDS011;67372;49.404;11.034;2023-11-21T09:51:44;6.10;;;3.15;;
75626;SDS011;67372;49.404;11.034;2023-11-21T09:54:13;5.30;;;2.88;;
75626;SDS011;67372;49.404;11.034;2023-11-21T09:56:41;5.45;;;3.15;;
75626;SDS011;67372;49.404;11.034;2023-11-21T09:59:10;9.27;;;4.68;;
75626;SDS011;67372;49.404;11.034;2023-11-21T10:01:39;8.52;;;4.13;;
75626;SDS011;67372;49.404;11.034;2023-11-21T10:04:09;5.45;;;3.28;;
75626;SDS011;67372;49.404;11.034;2023-11-21T10:06:35;7.13;;;3.78;;
75626;SDS011;67372;49.404;11.034;2023-11-21T10:09:03;7.55;;;3.60;;
75626;SDS011;67372;49.404;11.034;2023-11-21T10:11:30;6.88;;;3.67;;
75626;SDS011;67372;49.404;11.034;2023-11-21T10:13:56;5.90;;;3.40;;
75626;SDS011;67372;49.404;11.034;2023-11-21T10:16:26;6.75;;;3.72;;
75626;SDS011;67372;49.404;11.034;2023-11-21T10:18:53;6.18;;;3.58;;
75626;SDS011;67372;49.404;11.034;2023-11-21T10:21:28;10.10;;;5.28;;
75626;SDS011;67372;49.404;11.034;2023-11-21T10:23:55;10.10;;;4.90;;
75626;SDS011;67372;49.404;11.034;2023-11-21T10:26:22;13.77;;;7.70;;
75626;SDS011;67372;49.404;11.034;2023-11-21T10:28:59;8.82;;;5.28;;
75626;SDS011;67372;49.404;11.034;2023-11-21T10:31:28;8.60;;;4.10;;
75626;SDS011;67372;49.404;11.034;2023-11-21T10:34:11;6.72;;;4.03;;
75626;SDS011;67372;49.404;11.034;2023-11-21T10:36:44;8.95;;;4.07;;
75626;SDS011;67372;49.404;11.034;2023-11-21T10:39:16;7.10;;;4.35;;
75626;SDS011;67372;49.404;11.034;2023-11-21T10:41:44;8.43;;;3.90;;
75626;SDS011;67372;49.404;11.034;2023-11-21T10:44:14;6.53;;;3.97;;
75626;SDS011;67372;49.404;11.034;2023-11-21T10:46:41;8.48;;;4.65;;
75626;SDS011;67372;49.404;11.034;2023-11-21T10:49:08;7.97;;;4.95;;
75626;SDS011;67372;49.404;11.034;2023-11-21T10:51:34;6.95;;;4.03;;
75626;SDS011;67372;49.404;11.034;2023-11-21T10:54:00;7.22;;;4.30;;
75626;SDS011;67372;49.404;11.034;2023-11-21T10:56:27;7.15;;;3.20;;
75626;SDS011;67372;49.404;11.034;2023-11-21T10:58:54;5.63;;;3.53;;
75626;SDS011;67372;49.404;11.034;2023-11-21T11:01:21;6.70;;;3.50;;
75626;SDS011;67372;49.404;11.034;2023-11-21T11:03:51;6.63;;;3.92;;
75626;SDS011;67372;49.404;11.034;2023-11-21T11:06:19;11.73;;;6.13;;
75626;SDS011;67372;49.404;11.034;2023-11-21T11:08:45;8.05;;;4.75;;
75626;SDS011;67372;49.404;11.034;2023-11-21T11:11:14;6.75;;;3.75;;
75626;SDS011;67372;49.404;11.034;2023-11-21T11:13:43;8.65;;;4.43;;
75626;SDS011;67372;49.404;11.034;2023-11-21T11:16:09;9.15;;;5.13;;
75626;SDS011;67372;49.404;11.034;2023-11-21T11:18:36;9.25;;;4.78;;
75626;SDS011;67372;49.404;11.034;2023-11-21T11:24:13;12.30;;;6.30;;
75626;SDS011;67372;49.404;11.034;2023-11-21T11:27:15;15.30;;;9.27;;
75626;SDS011;67372;49.404;11.034;2023-11-21T11:29:49;5.45;;;3.30;;
75626;SDS011;67372;49.404;11.034;2023-11-21T11:38:21;4.80;;;3.00;;
75626;SDS011;67372;49.404;11.034;2023-11-21T11:43:24;5.38;;;3.45;;
75626;SDS011;67372;49.404;11.034;2023-11-21T11:45:55;5.88;;;3.40;;
75626;SDS011;67372;49.404;11.034;2023-11-21T11:48:22;5.93;;;3.67;;
75626;SDS011;67372;49.404;11.034;2023-11-21T11:53:51;7.07;;;3.10;;
75626;SDS011;67372;49.404;11.034;2023-11-21T11:56:28;4.35;;;2.47;;
75626;SDS011;67372;49.404;11.034;2023-11-21T11:58:58;8.57;;;5.25;;
75626;SDS011;67372;49.404;11.034;2023-11-21T12:01:28;6.57;;;2.95;;
75626;SDS011;67372;49.404;11.034;2023-11-21T12:04:22;5.38;;;2.30;;
75626;SDS011;67372;49.404;11.034;2023-11-21T12:06:51;4.25;;;2.20;;
75626;SDS011;67372;49.404;11.034;2023-11-21T12:11:46;4.88;;;2.35;;
75626;SDS011;67372;49.404;11.034;2023-11-21T12:14:13;4.85;;;2.80;;
75626;SDS011;67372;49.404;11.034;2023-11-21T12:16:40;4.30;;;2.65;;
75626;SDS011;67372;49.404;11.034;2023-11-21T12:19:08;4.05;;;2.30;;
75626;SDS011;67372;49.404;11.034;2023-11-21T12:21:34;3.38;;;2.30;;
75626;SDS011;67372;49.404;11.034;2023-11-21T12:24:02;4.75;;;2.67;;
75626;SDS011;67372;49.404;11.034;2023-11-21T12:26:29;4.43;;;2.60;;
75626;SDS011;67372;49.404;11.034;2023-11-21T12:28:55;4.45;;;2.60;;
75626;SDS011;67372;49.404;11.034;2023-11-21T12:31:22;6.40;;;4.72;;
75626;SDS011;67372;49.404;11.034;2023-11-21T12:33:50;8.88;;;5.63;;
75626;SDS011;67372;49.404;11.034;2023-11-21T12:36:17;9.15;;;5.35;;
75626;SDS011;67372;49.404;11.034;2023-11-21T12:38:43;8.20;;;4.50;;
75626;SDS011;67372;49.404;11.034;2023-11-21T12:41:10;6.72;;;3.55;;
75626;SDS011;67372;49.404;11.034;2023-11-21T12:43:36;7.20;;;3.88;;
75626;SDS011;67372;49.404;11.034;2023-11-21T12:46:06;6.47;;;2.90;;
75626;SDS011;67372;49.404;11.034;2023-11-21T12:48:37;7.30;;;3.80;;
75626;SDS011;67372;49.404;11.034;2023-11-21T12:51:04;6.43;;;3.85;;
75626;SDS011;67372;49.404;11.034;2023-11-21T12:53:32;5.32;;;2.97;;
75626;SDS011;67372;49.404;11.034;2023-11-21T12:55:58;6.03;;;3.10;;
75626;SDS011;67372;49.404;11.034;2023-11-21T12:58:25;7.28;;;3.65;;
75626;SDS011;67372;49.404;11.034;2023-11-21T13:00:51;7.65;;;4.03;;
75626;SDS011;67372;49.404;11.034;2023-11-21T13:03:18;5.32;;;3.00;;
75626;SDS011;67372;49.404;11.034;2023-11-21T13:05:46;6.50;;;4.00;;
75626;SDS011;67372;49.404;11.034;2023-11-21T13:08:14;4.88;;;3.25;;
75626;SDS011;67372;49.404;11.034;2023-11-21T13:10:42;7.05;;;3.92;;
75626;SDS011;67372;49.404;11.034;2023-11-21T13:13:11;7.68;;;3.70;;
75626;SDS011;67372;49.404;11.034;2023-11-21T13:15:39;5.57;;;3.17;;
75626;SDS011;67372;49.404;11.034;2023-11-21T13:18:07;5.85;;;3.17;;
75626;SDS011;67372;49.404;11.034;2023-11-21T13:20:33;5.88;;;3.22;;
75626;SDS011;67372;49.404;11.034;2023-11-21T13:22:59;6.10;;;3.45;;
75626;SDS011;67372;49.404;11.034;2023-11-21T13:25:27;7.47;;;3.70;;
75626;SDS011;67372;49.404;11.034;2023-11-21T13:27:56;6.72;;;3.38;;
75626;SDS011;67372;49.404;11.034;2023-11-21T13:30:25;6.28;;;3.33;;
75626;SDS011;67372;49.404;11.034;2023-11-21T13:32:52;5.78;;;3.78;;
75626;SDS011;67372;49.404;11.034;2023-11-21T13:35:22;7.93;;;4.13;;
75626;SDS011;67372;49.404;11.034;2023-11-21T13:40:16;7.32;;;4.40;;
75626;SDS011;67372;49.404;11.034;2023-11-21T13:42:46;8.20;;;3.72;;
75626;SDS011;67372;49.404;11.034;2023-11-21T13:45:12;5.28;;;3.22;;
75626;SDS011;67372;49.404;11.034;2023-11-21T13:47:39;6.63;;;3.40;;
75626;SDS011;67372;49.404;11.034;2023-11-21T13:50:05;5.13;;;3.10;;
75626;SDS011;67372;49.404;11.034;2023-11-21T13:52:32;5.00;;;3.42;;
75626;SDS011;67372;49.404;11.034;2023-11-21T13:54:59;7.97;;;3.65;;
75626;SDS011;67372;49.404;11.034;2023-11-21T13:57:25;6.03;;;3.15;;
75626;SDS011;67372;49.404;11.034;2023-11-21T13:59:52;7.13;;;3.38;;
75626;SDS011;67372;49.404;11.034;2023-11-21T14:02:18;5.82;;;3.50;;
75626;SDS011;67372;49.404;11.034;2023-11-21T14:04:45;5.68;;;3.30;;
75626;SDS011;67372;49.404;11.034;2023-11-21T14:07:11;4.30;;;2.72;;
75626;SDS011;67372;49.404;11.034;2023-11-21T14:09:41;3.85;;;2.30;;
75626;SDS011;67372;49.404;11.034;2023-11-21T14:12:07;4.15;;;2.20;;
75626;SDS011;67372;49.404;11.034;2023-11-21T14:14:34;4.28;;;2.42;;
75626;SDS011;67372;49.404;11.034;2023-11-21T14:17:00;3.42;;;2.20;;
75626;SDS011;67372;49.404;11.034;2023-11-21T14:19:27;3.88;;;2.25;;
75626;SDS011;67372;49.404;11.034;2023-11-21T14:21:54;4.40;;;2.17;;
75626;SDS011;67372;49.404;11.034;2023-11-21T14:24:20;4.38;;;2.30;;
75626;SDS011;67372;49.404;11.034;2023-11-21T14:26:46;3.88;;;1.92;;
75626;SDS011;67372;49.404;11.034;2023-11-21T14:29:13;3.75;;;1.77;;
75626;SDS011;67372;49.404;11.034;2023-11-21T14:31:41;4.03;;;2.00;;
75626;SDS011;67372;49.404;11.034;2023-11-21T14:34:07;3.35;;;1.83;;
75626;SDS011;67372;49.404;11.034;2023-11-21T14:36:34;5.88;;;1.80;;
75626;SDS011;67372;49.404;11.034;2023-11-21T14:39:01;3.65;;;2.00;;
75626;SDS011;67372;49.404;11.034;2023-11-21T14:41:27;4.15;;;1.80;;
75626;SDS011;67372;49.404;11.034;2023-11-21T14:43:54;4.05;;;2.00;;
75626;SDS011;67372;49.404;11.034;2023-11-21T14:46:21;3.67;;;1.90;;
75626;SDS011;67372;49.404;11.034;2023-11-21T14:48:47;4.50;;;1.80;;
75626;SDS011;67372;49.404;11.034;2023-11-21T14:51:14;5.63;;;2.00;;
75626;SDS011;67372;49.404;11.034;2023-11-21T14:53:40;2.60;;;1.60;;
75626;SDS011;67372;49.404;11.034;2023-11-21T14:56:09;5.57;;;2.47;;